sensor_id;sensor_type;location;lat;lon;timestamp;P1;durP1;ratioP1;P2;durP2;ratioP2
48363;SDS011;34170;54.364;18.582;2022-10-30T00:01:15;6.47;;;1.73;;
48363;SDS011;34170;54.364;18.582;2022-10-30T00:03:43;5.53;;;1.02;;
48363;SDS011;34170;54.364;18.582;2022-10-30T00:06:10;5.72;;;1.13;;
48363;SDS011;34170;54.364;18.582;2022-10-30T00:08:38;6.43;;;1.40;;
48363;SDS011;34170;54.364;18.582;2022-10-30T00:11:06;5.10;;;1.10;;
48363;SDS011;34170;54.364;18.582;2022-10-30T00:13:35;11.05;;;5.43;;
48363;SDS011;34170;54.364;18.582;2022-10-30T00:16:06;5.55;;;1.27;;
48363;SDS011;34170;54.364;18.582;2022-10-30T00:18:34;5.50;;;1.00;;
48363;SDS011;34170;54.364;18.582;2022-10-30T00:21:10;8.75;;;2.55;;
48363;SDS011;34170;54.364;18.582;2022-10-30T00:23:46;5.05;;;1.42;;
48363;SDS011;34170;54.364;18.582;2022-10-30T00:26:15;6.28;;;1.52;;
48363;SDS011;34170;54.364;18.582;2022-10-30T00:28:47;9.27;;;1.45;;
48363;SDS011;34170;54.364;18.582;2022-10-30T00:31:15;7.82;;;1.58;;
48363;SDS011;34170;54.364;18.582;2022-10-30T00:33:43;12.38;;;2.53;;
48363;SDS011;34170;54.364;18.582;2022-10-30T00:36:14;6.55;;;1.77;;
48363;SDS011;34170;54.364;18.582;2022-10-30T00:38:41;7.72;;;1.77;;
48363;SDS011;34170;54.364;18.582;2022-10-30T00:41:14;4.60;;;1.30;;
48363;SDS011;34170;54.364;18.582;2022-10-30T00:43:43;7.65;;;1.20;;
48363;SDS011;34170;54.364;18.582;2022-10-30T00:48:51;9.43;;;1.75;;
48363;SDS011;34170;54.364;18.582;2022-10-30T00:51:22;6.10;;;1.42;;
48363;SDS011;34170;54.364;18.582;2022-10-30T00:53:50;5.85;;;1.92;;
48363;SDS011;34170;54.364;18.582;2022-10-30T00:56:18;7.53;;;1.88;;
48363;SDS011;34170;54.364;18.582;2022-10-30T00:59:01;6.82;;;1.50;;
48363;SDS011;34170;54.364;18.582;2022-10-30T01:01:35;3.90;;;1.10;;
48363;SDS011;34170;54.364;18.582;2022-10-30T01:04:05;5.70;;;1.92;;
48363;SDS011;34170;54.364;18.582;2022-10-30T01:06:35;5.88;;;1.48;;
48363;SDS011;34170;54.364;18.582;2022-10-30T01:09:07;8.73;;;1.73;;
48363;SDS011;34170;54.364;18.582;2022-10-30T01:11:35;7.40;;;1.55;;
48363;SDS011;34170;54.364;18.582;2022-10-30T01:14:03;9.15;;;1.63;;
48363;SDS011;34170;54.364;18.582;2022-10-30T01:19:43;6.65;;;1.42;;
48363;SDS011;34170;54.364;18.582;2022-10-30T01:38:46;6.88;;;1.27;;
48363;SDS011;34170;54.364;18.582;2022-10-30T01:41:18;5.05;;;1.35;;
48363;SDS011;34170;54.364;18.582;2022-10-30T01:43:47;7.03;;;2.38;;
48363;SDS011;34170;54.364;18.582;2022-10-30T01:48:52;9.00;;;2.03;;
48363;SDS011;34170;54.364;18.582;2022-10-30T01:51:52;9.45;;;2.50;;
48363;SDS011;34170;54.364;18.582;2022-10-30T02:00:15;6.38;;;1.67;;
48363;SDS011;34170;54.364;18.582;2022-10-30T02:02:47;10.70;;;1.90;;
48363;SDS011;34170;54.364;18.582;2022-10-30T02:05:40;9.02;;;2.35;;
48363;SDS011;34170;54.364;18.582;2022-10-30T02:08:10;5.25;;;1.55;;
48363;SDS011;34170;54.364;18.582;2022-10-30T02:10:38;9.32;;;1.90;;
48363;SDS011;34170;54.364;18.582;2022-10-30T02:13:09;5.77;;;1.73;;
48363;SDS011;34170;54.364;18.582;2022-10-30T02:15:37;4.57;;;1.48;;
48363;SDS011;34170;54.364;18.582;2022-10-30T02:18:04;8.52;;;1.40;;
48363;SDS011;34170;54.364;18.582;2022-10-30T02:20:32;4.78;;;1.80;;
48363;SDS011;34170;54.364;18.582;2022-10-30T02:22:59;6.28;;;2.00;;
48363;SDS011;34170;54.364;18.582;2022-10-30T02:25:32;13.48;;;4.45;;
48363;SDS011;34170;54.364;18.582;2022-10-30T02:27:59;8.30;;;3.03;;
48363;SDS011;34170;54.364;18.582;2022-10-30T02:30:29;9.82;;;2.00;;
48363;SDS011;34170;54.364;18.582;2022-10-30T02:32:59;6.38;;;2.05;;
48363;SDS011;34170;54.364;18.582;2022-10-30T02:35:28;5.32;;;1.80;;
48363;SDS011;34170;54.364;18.582;2022-10-30T02:37:55;8.50;;;2.13;;
48363;SDS011;34170;54.364;18.582;2022-10-30T02:40:25;7.43;;;2.30;;
48363;SDS011;34170;54.364;18.582;2022-10-30T02:42:52;6.30;;;2.15;;
48363;SDS011;34170;54.364;18.582;2022-10-30T02:45:20;7.40;;;2.20;;
48363;SDS011;34170;54.364;18.582;2022-10-30T02:47:48;29.02;;;14.18;;
48363;SDS011;34170;54.364;18.582;2022-10-30T02:50:16;7.30;;;1.85;;
48363;SDS011;34170;54.364;18.582;2022-10-30T02:52:43;6.90;;;1.58;;
48363;SDS011;34170;54.364;18.582;2022-10-30T02:55:11;6.72;;;2.00;;
48363;SDS011;34170;54.364;18.582;2022-10-30T02:57:40;5.53;;;1.88;;
48363;SDS011;34170;54.364;18.582;2022-10-30T03:00:08;5.22;;;1.67;;
48363;SDS011;34170;54.364;18.582;2022-10-30T03:02:36;5.72;;;1.95;;
48363;SDS011;34170;54.364;18.582;2022-10-30T03:05:03;4.95;;;1.63;;
48363;SDS011;34170;54.364;18.582;2022-10-30T03:07:31;6.60;;;1.75;;
48363;SDS011;34170;54.364;18.582;2022-10-30T03:09:58;8.65;;;2.03;;
48363;SDS011;34170;54.364;18.582;2022-10-30T03:12:25;7.80;;;1.90;;
48363;SDS011;34170;54.364;18.582;2022-10-30T03:14:52;6.82;;;2.00;;
48363;SDS011;34170;54.364;18.582;2022-10-30T03:17:20;6.93;;;2.17;;
48363;SDS011;34170;54.364;18.582;2022-10-30T03:19:48;10.45;;;2.20;;
48363;SDS011;34170;54.364;18.582;2022-10-30T03:22:15;6.45;;;2.00;;
48363;SDS011;34170;54.364;18.582;2022-10-30T03:24:42;7.10;;;2.63;;
48363;SDS011;34170;54.364;18.582;2022-10-30T03:27:10;10.48;;;3.58;;
48363;SDS011;34170;54.364;18.582;2022-10-30T03:29:38;9.20;;;2.33;;
48363;SDS011;34170;54.364;18.582;2022-10-30T03:32:09;5.50;;;2.10;;
48363;SDS011;34170;54.364;18.582;2022-10-30T03:34:49;5.05;;;1.63;;
48363;SDS011;34170;54.364;18.582;2022-10-30T03:37:18;8.07;;;2.58;;
48363;SDS011;34170;54.364;18.582;2022-10-30T03:39:45;5.82;;;2.03;;
48363;SDS011;34170;54.364;18.582;2022-10-30T03:42:13;12.75;;;5.40;;
48363;SDS011;34170;54.364;18.582;2022-10-30T03:44:40;7.50;;;1.88;;
48363;SDS011;34170;54.364;18.582;2022-10-30T03:47:07;6.90;;;2.53;;
48363;SDS011;34170;54.364;18.582;2022-10-30T03:49:40;10.70;;;2.45;;
48363;SDS011;34170;54.364;18.582;2022-10-30T03:52:11;9.07;;;2.13;;
48363;SDS011;34170;54.364;18.582;2022-10-30T03:54:38;6.07;;;1.75;;
48363;SDS011;34170;54.364;18.582;2022-10-30T03:57:07;7.03;;;2.53;;
48363;SDS011;34170;54.364;18.582;2022-10-30T03:59:47;5.90;;;2.28;;
48363;SDS011;34170;54.364;18.582;2022-10-30T04:02:37;8.68;;;3.00;;
48363;SDS011;34170;54.364;18.582;2022-10-30T04:05:04;8.02;;;2.53;;
48363;SDS011;34170;54.364;18.582;2022-10-30T04:07:31;9.75;;;2.78;;
48363;SDS011;34170;54.364;18.582;2022-10-30T04:09:59;7.00;;;2.40;;
48363;SDS011;34170;54.364;18.582;2022-10-30T04:12:28;8.80;;;2.20;;
48363;SDS011;34170;54.364;18.582;2022-10-30T04:14:55;8.13;;;2.28;;
48363;SDS011;34170;54.364;18.582;2022-10-30T04:17:22;7.93;;;2.55;;
48363;SDS011;34170;54.364;18.582;2022-10-30T04:19:49;6.22;;;2.13;;
48363;SDS011;34170;54.364;18.582;2022-10-30T04:22:17;7.15;;;2.47;;
48363;SDS011;34170;54.364;18.582;2022-10-30T04:24:45;9.80;;;1.95;;
48363;SDS011;34170;54.364;18.582;2022-10-30T04:27:14;6.35;;;2.22;;
48363;SDS011;34170;54.364;18.582;2022-10-30T04:29:42;6.43;;;2.10;;
48363;SDS011;34170;54.364;18.582;2022-10-30T04:32:10;9.05;;;2.83;;
48363;SDS011;34170;54.364;18.582;2022-10-30T04:34:37;6.00;;;2.03;;
48363;SDS011;34170;54.364;18.582;2022-10-30T04:37:05;11.55;;;2.20;;
48363;SDS011;34170;54.364;18.582;2022-10-30T04:39:33;5.22;;;2.45;;
48363;SDS011;34170;54.364;18.582;2022-10-30T04:42:10;9.07;;;2.88;;
48363;SDS011;34170;54.364;18.582;2022-10-30T04:44:39;8.90;;;2.88;;
48363;SDS011;34170;54.364;18.582;2022-10-30T04:47:07;9.73;;;2.40;;
48363;SDS011;34170;54.364;18.582;2022-10-30T04:49:35;12.82;;;3.67;;
48363;SDS011;34170;54.364;18.582;2022-10-30T04:52:02;8.88;;;2.15;;
48363;SDS011;34170;54.364;18.582;2022-10-30T04:54:29;6.88;;;2.25;;
48363;SDS011;34170;54.364;18.582;2022-10-30T04:56:56;7.38;;;2.20;;
48363;SDS011;34170;54.364;18.582;2022-10-30T04:59:24;4.63;;;2.20;;
48363;SDS011;34170;54.364;18.582;2022-10-30T05:01:53;8.68;;;2.25;;
48363;SDS011;34170;54.364;18.582;2022-10-30T05:04:20;8.02;;;2.05;;
48363;SDS011;34170;54.364;18.582;2022-10-30T05:06:48;8.57;;;2.67;;
48363;SDS011;34170;54.364;18.582;2022-10-30T05:09:15;8.07;;;2.60;;
48363;SDS011;34170;54.364;18.582;2022-10-30T05:11:42;6.68;;;2.15;;
48363;SDS011;34170;54.364;18.582;2022-10-30T05:14:10;6.10;;;1.88;;
48363;SDS011;34170;54.364;18.582;2022-10-30T05:16:37;8.15;;;2.25;;
48363;SDS011;34170;54.364;18.582;2022-10-30T05:19:05;7.45;;;2.08;;
48363;SDS011;34170;54.364;18.582;2022-10-30T05:21:34;7.80;;;2.38;;
48363;SDS011;34170;54.364;18.582;2022-10-30T05:24:01;7.80;;;2.05;;
48363;SDS011;34170;54.364;18.582;2022-10-30T05:26:37;10.88;;;2.50;;
48363;SDS011;34170;54.364;18.582;2022-10-30T05:29:04;7.70;;;1.88;;
48363;SDS011;34170;54.364;18.582;2022-10-30T05:31:31;7.80;;;2.17;;
48363;SDS011;34170;54.364;18.582;2022-10-30T05:34:04;4.63;;;2.08;;
48363;SDS011;34170;54.364;18.582;2022-10-30T05:36:36;6.53;;;2.00;;
48363;SDS011;34170;54.364;18.582;2022-10-30T05:39:04;7.32;;;2.28;;
48363;SDS011;34170;54.364;18.582;2022-10-30T05:41:35;8.25;;;2.42;;
48363;SDS011;34170;54.364;18.582;2022-10-30T05:44:02;9.80;;;2.50;;
48363;SDS011;34170;54.364;18.582;2022-10-30T05:46:31;5.97;;;2.35;;
48363;SDS011;34170;54.364;18.582;2022-10-30T05:49:10;5.40;;;2.40;;
48363;SDS011;34170;54.364;18.582;2022-10-30T05:51:37;9.05;;;2.42;;
48363;SDS011;34170;54.364;18.582;2022-10-30T05:54:09;6.28;;;1.77;;
48363;SDS011;34170;54.364;18.582;2022-10-30T05:56:42;8.15;;;2.05;;
48363;SDS011;34170;54.364;18.582;2022-10-30T05:59:11;8.60;;;2.72;;
48363;SDS011;34170;54.364;18.582;2022-10-30T06:01:38;8.18;;;2.35;;
48363;SDS011;34170;54.364;18.582;2022-10-30T06:04:11;5.75;;;2.50;;
48363;SDS011;34170;54.364;18.582;2022-10-30T06:06:38;7.38;;;2.28;;
48363;SDS011;34170;54.364;18.582;2022-10-30T06:09:05;7.63;;;2.47;;
48363;SDS011;34170;54.364;18.582;2022-10-30T06:11:56;4.87;;;1.93;;
48363;SDS011;34170;54.364;18.582;2022-10-30T06:14:43;5.07;;;2.03;;
48363;SDS011;34170;54.364;18.582;2022-10-30T06:17:10;7.68;;;2.40;;
48363;SDS011;34170;54.364;18.582;2022-10-30T06:19:58;5.00;;;2.08;;
48363;SDS011;34170;54.364;18.582;2022-10-30T06:23:03;3.33;;;2.15;;
48363;SDS011;34170;54.364;18.582;2022-10-30T06:25:41;10.07;;;2.33;;
48363;SDS011;34170;54.364;18.582;2022-10-30T06:28:31;4.75;;;2.30;;
48363;SDS011;34170;54.364;18.582;2022-10-30T06:30:59;4.25;;;1.85;;
48363;SDS011;34170;54.364;18.582;2022-10-30T06:33:26;5.65;;;2.28;;
48363;SDS011;34170;54.364;18.582;2022-10-30T06:35:54;4.82;;;2.13;;
48363;SDS011;34170;54.364;18.582;2022-10-30T06:38:22;5.88;;;2.30;;
48363;SDS011;34170;54.364;18.582;2022-10-30T06:40:50;6.20;;;2.42;;
48363;SDS011;34170;54.364;18.582;2022-10-30T06:43:39;8.23;;;2.53;;
48363;SDS011;34170;54.364;18.582;2022-10-30T06:46:12;7.80;;;2.13;;
48363;SDS011;34170;54.364;18.582;2022-10-30T06:48:42;5.10;;;2.40;;
48363;SDS011;34170;54.364;18.582;2022-10-30T06:51:10;6.05;;;2.22;;
48363;SDS011;34170;54.364;18.582;2022-10-30T06:53:42;5.97;;;2.38;;
48363;SDS011;34170;54.364;18.582;2022-10-30T06:56:28;5.72;;;2.50;;
48363;SDS011;34170;54.364;18.582;2022-10-30T06:59:06;6.07;;;2.60;;
48363;SDS011;34170;54.364;18.582;2022-10-30T07:01:43;7.35;;;2.90;;
48363;SDS011;34170;54.364;18.582;2022-10-30T07:04:16;7.18;;;2.58;;
48363;SDS011;34170;54.364;18.582;2022-10-30T07:06:43;5.97;;;2.22;;
48363;SDS011;34170;54.364;18.582;2022-10-30T07:09:11;6.78;;;2.75;;
48363;SDS011;34170;54.364;18.582;2022-10-30T07:11:38;8.95;;;3.08;;
48363;SDS011;34170;54.364;18.582;2022-10-30T07:14:18;12.52;;;3.22;;
48363;SDS011;34170;54.364;18.582;2022-10-30T07:16:56;9.77;;;3.15;;
48363;SDS011;34170;54.364;18.582;2022-10-30T07:19:25;7.45;;;3.13;;
48363;SDS011;34170;54.364;18.582;2022-10-30T07:21:54;8.48;;;2.83;;
48363;SDS011;34170;54.364;18.582;2022-10-30T07:24:22;6.10;;;2.83;;
48363;SDS011;34170;54.364;18.582;2022-10-30T07:27:08;10.13;;;3.17;;
48363;SDS011;34170;54.364;18.582;2022-10-30T07:29:55;7.13;;;2.90;;
48363;SDS011;34170;54.364;18.582;2022-10-30T07:32:26;7.07;;;2.78;;
48363;SDS011;34170;54.364;18.582;2022-10-30T07:35:12;6.30;;;3.00;;
48363;SDS011;34170;54.364;18.582;2022-10-30T07:38:12;10.57;;;3.47;;
48363;SDS011;34170;54.364;18.582;2022-10-30T07:40:53;9.20;;;3.65;;
48363;SDS011;34170;54.364;18.582;2022-10-30T07:43:49;7.22;;;3.25;;
48363;SDS011;34170;54.364;18.582;2022-10-30T07:46:35;8.10;;;3.70;;
48363;SDS011;34170;54.364;18.582;2022-10-30T07:49:32;8.18;;;3.17;;
48363;SDS011;34170;54.364;18.582;2022-10-30T07:52:04;9.40;;;3.25;;
48363;SDS011;34170;54.364;18.582;2022-10-30T07:54:32;6.50;;;3.05;;
48363;SDS011;34170;54.364;18.582;2022-10-30T07:57:14;8.00;;;3.28;;
48363;SDS011;34170;54.364;18.582;2022-10-30T08:00:08;7.68;;;3.17;;
48363;SDS011;34170;54.364;18.582;2022-10-30T08:02:38;5.53;;;3.08;;
48363;SDS011;34170;54.364;18.582;2022-10-30T08:05:13;7.95;;;3.08;;
48363;SDS011;34170;54.364;18.582;2022-10-30T08:08:02;6.60;;;2.60;;
48363;SDS011;34170;54.364;18.582;2022-10-30T08:10:30;6.82;;;2.95;;
48363;SDS011;34170;54.364;18.582;2022-10-30T08:12:57;8.52;;;3.45;;
48363;SDS011;34170;54.364;18.582;2022-10-30T08:15:24;6.53;;;3.05;;
48363;SDS011;34170;54.364;18.582;2022-10-30T08:17:52;9.05;;;2.88;;
48363;SDS011;34170;54.364;18.582;2022-10-30T08:20:21;9.07;;;2.63;;
48363;SDS011;34170;54.364;18.582;2022-10-30T08:25:23;7.50;;;2.85;;
48363;SDS011;34170;54.364;18.582;2022-10-30T08:30:24;6.60;;;2.75;;
48363;SDS011;34170;54.364;18.582;2022-10-30T08:33:00;6.75;;;2.45;;
48363;SDS011;34170;54.364;18.582;2022-10-30T08:35:49;6.93;;;2.95;;
48363;SDS011;34170;54.364;18.582;2022-10-30T08:38:17;5.38;;;2.45;;
48363;SDS011;34170;54.364;18.582;2022-10-30T08:40:54;6.43;;;2.25;;
48363;SDS011;34170;54.364;18.582;2022-10-30T08:43:21;4.85;;;2.25;;
48363;SDS011;34170;54.364;18.582;2022-10-30T08:45:51;5.03;;;2.38;;
48363;SDS011;34170;54.364;18.582;2022-10-30T08:48:20;8.32;;;2.80;;
48363;SDS011;34170;54.364;18.582;2022-10-30T08:50:49;4.32;;;1.65;;
48363;SDS011;34170;54.364;18.582;2022-10-30T08:53:24;6.35;;;2.20;;
48363;SDS011;34170;54.364;18.582;2022-10-30T08:55:54;4.72;;;1.63;;
48363;SDS011;34170;54.364;18.582;2022-10-30T08:58:30;8.00;;;1.70;;
48363;SDS011;34170;54.364;18.582;2022-10-30T09:00:58;5.00;;;1.80;;
48363;SDS011;34170;54.364;18.582;2022-10-30T09:04:06;4.05;;;1.63;;
48363;SDS011;34170;54.364;18.582;2022-10-30T09:06:59;6.05;;;2.33;;
48363;SDS011;34170;54.364;18.582;2022-10-30T09:09:56;5.93;;;1.65;;
48363;SDS011;34170;54.364;18.582;2022-10-30T09:12:26;4.97;;;2.17;;
48363;SDS011;34170;54.364;18.582;2022-10-30T09:14:54;3.63;;;1.45;;
48363;SDS011;34170;54.364;18.582;2022-10-30T09:17:21;6.07;;;1.60;;
48363;SDS011;34170;54.364;18.582;2022-10-30T09:19:51;4.15;;;1.90;;
48363;SDS011;34170;54.364;18.582;2022-10-30T09:22:28;6.25;;;1.77;;
48363;SDS011;34170;54.364;18.582;2022-10-30T09:24:56;6.80;;;1.40;;
48363;SDS011;34170;54.364;18.582;2022-10-30T09:28:01;4.65;;;2.05;;
48363;SDS011;34170;54.364;18.582;2022-10-30T09:30:42;3.92;;;1.52;;
48363;SDS011;34170;54.364;18.582;2022-10-30T09:33:11;3.88;;;1.33;;
48363;SDS011;34170;54.364;18.582;2022-10-30T09:35:59;5.15;;;1.40;;
48363;SDS011;34170;54.364;18.582;2022-10-30T09:38:28;3.45;;;1.63;;
48363;SDS011;34170;54.364;18.582;2022-10-30T09:41:06;4.95;;;1.65;;
48363;SDS011;34170;54.364;18.582;2022-10-30T09:44:02;3.85;;;1.52;;
48363;SDS011;34170;54.364;18.582;2022-10-30T09:47:03;8.02;;;1.80;;
48363;SDS011;34170;54.364;18.582;2022-10-30T09:55:18;2.15;;;1.05;;
48363;SDS011;34170;54.364;18.582;2022-10-30T09:58:17;4.75;;;1.73;;
48363;SDS011;34170;54.364;18.582;2022-10-30T10:01:06;6.70;;;1.43;;
48363;SDS011;34170;54.364;18.582;2022-10-30T10:04:08;3.08;;;1.27;;
48363;SDS011;34170;54.364;18.582;2022-10-30T10:06:43;3.20;;;1.42;;
48363;SDS011;34170;54.364;18.582;2022-10-30T10:09:35;6.45;;;1.45;;
48363;SDS011;34170;54.364;18.582;2022-10-30T10:12:21;5.50;;;1.90;;
48363;SDS011;34170;54.364;18.582;2022-10-30T10:15:13;4.30;;;1.30;;
48363;SDS011;34170;54.364;18.582;2022-10-30T10:17:48;4.93;;;1.85;;
48363;SDS011;34170;54.364;18.582;2022-10-30T10:20:38;4.03;;;1.50;;
48363;SDS011;34170;54.364;18.582;2022-10-30T10:26:59;4.75;;;1.77;;
48363;SDS011;34170;54.364;18.582;2022-10-30T10:34:32;5.85;;;1.90;;
48363;SDS011;34170;54.364;18.582;2022-10-30T10:40:49;4.05;;;1.58;;
48363;SDS011;34170;54.364;18.582;2022-10-30T10:42:53;4.93;;;1.85;;
48363;SDS011;34170;54.364;18.582;2022-10-30T10:45:36;5.28;;;1.38;;
48363;SDS011;34170;54.364;18.582;2022-10-30T10:51:09;6.35;;;1.85;;
48363;SDS011;34170;54.364;18.582;2022-10-30T10:54:04;6.38;;;1.85;;
48363;SDS011;34170;54.364;18.582;2022-10-30T10:56:37;5.03;;;1.50;;
48363;SDS011;34170;54.364;18.582;2022-10-30T11:01:47;8.25;;;2.00;;
48363;SDS011;34170;54.364;18.582;2022-10-30T11:06:58;4.55;;;2.05;;
48363;SDS011;34170;54.364;18.582;2022-10-30T11:09:39;6.97;;;1.92;;
48363;SDS011;34170;54.364;18.582;2022-10-30T11:12:08;6.22;;;1.85;;
48363;SDS011;34170;54.364;18.582;2022-10-30T11:14:35;7.05;;;2.05;;
48363;SDS011;34170;54.364;18.582;2022-10-30T11:17:18;4.40;;;2.20;;
48363;SDS011;34170;54.364;18.582;2022-10-30T11:19:50;5.25;;;2.00;;
48363;SDS011;34170;54.364;18.582;2022-10-30T11:22:26;4.95;;;2.05;;
48363;SDS011;34170;54.364;18.582;2022-10-30T11:27:43;5.70;;;1.73;;
48363;SDS011;34170;54.364;18.582;2022-10-30T11:30:21;2.65;;;1.50;;
48363;SDS011;34170;54.364;18.582;2022-10-30T11:32:52;5.85;;;1.98;;
48363;SDS011;34170;54.364;18.582;2022-10-30T11:35:23;7.03;;;1.80;;
48363;SDS011;34170;54.364;18.582;2022-10-30T11:37:52;4.45;;;2.10;;
48363;SDS011;34170;54.364;18.582;2022-10-30T11:40:45;6.13;;;2.30;;
48363;SDS011;34170;54.364;18.582;2022-10-30T11:43:15;5.60;;;2.22;;
48363;SDS011;34170;54.364;18.582;2022-10-30T11:45:48;6.05;;;2.10;;
48363;SDS011;34170;54.364;18.582;2022-10-30T11:48:21;7.18;;;2.97;;
48363;SDS011;34170;54.364;18.582;2022-10-30T11:50:54;5.43;;;2.80;;
48363;SDS011;34170;54.364;18.582;2022-10-30T11:53:32;4.38;;;2.53;;
48363;SDS011;34170;54.364;18.582;2022-10-30T11:56:20;6.03;;;2.58;;
48363;SDS011;34170;54.364;18.582;2022-10-30T11:58:49;5.85;;;2.47;;
48363;SDS011;34170;54.364;18.582;2022-10-30T12:01:27;4.97;;;2.10;;
48363;SDS011;34170;54.364;18.582;2022-10-30T12:03:58;7.07;;;2.47;;
48363;SDS011;34170;54.364;18.582;2022-10-30T12:06:54;6.68;;;2.42;;
48363;SDS011;34170;54.364;18.582;2022-10-30T12:09:43;4.82;;;2.40;;
48363;SDS011;34170;54.364;18.582;2022-10-30T12:12:28;7.97;;;3.05;;
48363;SDS011;34170;54.364;18.582;2022-10-30T12:15:22;6.75;;;2.67;;
48363;SDS011;34170;54.364;18.582;2022-10-30T12:18:00;6.17;;;2.60;;
48363;SDS011;34170;54.364;18.582;2022-10-30T12:20:28;6.38;;;3.25;;
48363;SDS011;34170;54.364;18.582;2022-10-30T12:22:56;8.73;;;2.85;;
48363;SDS011;34170;54.364;18.582;2022-10-30T12:25:28;7.80;;;2.72;;
48363;SDS011;34170;54.364;18.582;2022-10-30T12:28:00;8.40;;;3.10;;
48363;SDS011;34170;54.364;18.582;2022-10-30T12:30:36;7.13;;;3.20;;
48363;SDS011;34170;54.364;18.582;2022-10-30T12:33:14;5.45;;;2.83;;
48363;SDS011;34170;54.364;18.582;2022-10-30T12:38:29;7.40;;;3.20;;
48363;SDS011;34170;54.364;18.582;2022-10-30T12:43:45;6.32;;;3.20;;
48363;SDS011;34170;54.364;18.582;2022-10-30T12:46:35;6.00;;;3.05;;
48363;SDS011;34170;54.364;18.582;2022-10-30T12:54:48;11.10;;;3.70;;
48363;SDS011;34170;54.364;18.582;2022-10-30T12:57:17;8.73;;;3.22;;
48363;SDS011;34170;54.364;18.582;2022-10-30T12:59:52;7.82;;;3.75;;
48363;SDS011;34170;54.364;18.582;2022-10-30T13:08:10;5.93;;;3.42;;
48363;SDS011;34170;54.364;18.582;2022-10-30T13:11:13;8.38;;;3.67;;
48363;SDS011;34170;54.364;18.582;2022-10-30T13:13:41;7.65;;;3.38;;
48363;SDS011;34170;54.364;18.582;2022-10-30T13:16:26;8.23;;;3.47;;
48363;SDS011;34170;54.364;18.582;2022-10-30T13:18:57;9.85;;;4.38;;
48363;SDS011;34170;54.364;18.582;2022-10-30T13:26:51;11.50;;;4.25;;
48363;SDS011;34170;54.364;18.582;2022-10-30T13:29:30;11.13;;;3.95;;
48363;SDS011;34170;54.364;18.582;2022-10-30T13:37:30;8.90;;;4.45;;
48363;SDS011;34170;54.364;18.582;2022-10-30T13:40:09;7.88;;;4.35;;
48363;SDS011;34170;54.364;18.582;2022-10-30T13:48:04;7.85;;;4.13;;
48363;SDS011;34170;54.364;18.582;2022-10-30T13:53:43;7.65;;;4.38;;
48363;SDS011;34170;54.364;18.582;2022-10-30T13:56:15;10.27;;;4.70;;
48363;SDS011;34170;54.364;18.582;2022-10-30T13:58:50;9.82;;;5.35;;
48363;SDS011;34170;54.364;18.582;2022-10-30T14:01:35;9.43;;;5.10;;
48363;SDS011;34170;54.364;18.582;2022-10-30T14:07:33;8.55;;;4.90;;
48363;SDS011;34170;54.364;18.582;2022-10-30T14:13:15;11.35;;;5.47;;
48363;SDS011;34170;54.364;18.582;2022-10-30T14:15:58;8.82;;;5.43;;
48363;SDS011;34170;54.364;18.582;2022-10-30T14:18:41;9.77;;;5.40;;
48363;SDS011;34170;54.364;18.582;2022-10-30T14:24:12;10.07;;;5.43;;
48363;SDS011;34170;54.364;18.582;2022-10-30T14:26:45;9.30;;;5.80;;
48363;SDS011;34170;54.364;18.582;2022-10-30T14:29:29;8.23;;;5.00;;
48363;SDS011;34170;54.364;18.582;2022-10-30T14:32:00;6.93;;;3.60;;
48363;SDS011;34170;54.364;18.582;2022-10-30T14:34:44;6.97;;;4.63;;
48363;SDS011;34170;54.364;18.582;2022-10-30T14:37:53;11.80;;;5.50;;
48363;SDS011;34170;54.364;18.582;2022-10-30T14:46:00;8.80;;;5.43;;
48363;SDS011;34170;54.364;18.582;2022-10-30T14:51:34;11.23;;;6.18;;
48363;SDS011;34170;54.364;18.582;2022-10-30T14:56:50;11.95;;;6.18;;
48363;SDS011;34170;54.364;18.582;2022-10-30T14:59:25;11.85;;;6.25;;
48363;SDS011;34170;54.364;18.582;2022-10-30T15:02:22;12.30;;;6.00;;
48363;SDS011;34170;54.364;18.582;2022-10-30T15:05:10;11.77;;;6.50;;
48363;SDS011;34170;54.364;18.582;2022-10-30T15:07:56;13.18;;;6.55;;
48363;SDS011;34170;54.364;18.582;2022-10-30T15:10:36;16.63;;;6.15;;
48363;SDS011;34170;54.364;18.582;2022-10-30T15:13:21;13.13;;;5.70;;
48363;SDS011;34170;54.364;18.582;2022-10-30T15:15:56;10.13;;;5.97;;
48363;SDS011;34170;54.364;18.582;2022-10-30T15:18:28;10.50;;;5.30;;
48363;SDS011;34170;54.364;18.582;2022-10-30T15:20:59;10.93;;;5.78;;
48363;SDS011;34170;54.364;18.582;2022-10-30T15:23:33;10.07;;;5.55;;
48363;SDS011;34170;54.364;18.582;2022-10-30T15:26:07;9.60;;;5.32;;
48363;SDS011;34170;54.364;18.582;2022-10-30T15:28:50;10.70;;;5.55;;
48363;SDS011;34170;54.364;18.582;2022-10-30T15:31:20;12.98;;;5.57;;
48363;SDS011;34170;54.364;18.582;2022-10-30T15:33:50;11.73;;;6.03;;
48363;SDS011;34170;54.364;18.582;2022-10-30T15:36:20;16.83;;;7.22;;
48363;SDS011;34170;54.364;18.582;2022-10-30T15:39:07;12.10;;;5.82;;
48363;SDS011;34170;54.364;18.582;2022-10-30T15:44:32;11.30;;;6.28;;
48363;SDS011;34170;54.364;18.582;2022-10-30T15:47:02;13.85;;;7.25;;
48363;SDS011;34170;54.364;18.582;2022-10-30T15:49:34;14.38;;;8.15;;
48363;SDS011;34170;54.364;18.582;2022-10-30T15:52:04;16.63;;;9.23;;
48363;SDS011;34170;54.364;18.582;2022-10-30T15:54:43;18.63;;;9.93;;
48363;SDS011;34170;54.364;18.582;2022-10-30T15:57:20;17.77;;;10.23;;
48363;SDS011;34170;54.364;18.582;2022-10-30T16:02:47;16.38;;;9.65;;
48363;SDS011;34170;54.364;18.582;2022-10-30T16:05:19;18.15;;;10.65;;
48363;SDS011;34170;54.364;18.582;2022-10-30T16:07:48;20.25;;;11.25;;
48363;SDS011;34170;54.364;18.582;2022-10-30T16:10:16;17.80;;;10.55;;
48363;SDS011;34170;54.364;18.582;2022-10-30T16:12:44;20.77;;;10.93;;
48363;SDS011;34170;54.364;18.582;2022-10-30T16:15:23;19.35;;;11.57;;
48363;SDS011;34170;54.364;18.582;2022-10-30T16:18:09;22.55;;;10.95;;
48363;SDS011;34170;54.364;18.582;2022-10-30T16:20:48;19.65;;;11.23;;
48363;SDS011;34170;54.364;18.582;2022-10-30T16:23:18;20.02;;;11.35;;
48363;SDS011;34170;54.364;18.582;2022-10-30T16:25:46;18.65;;;10.45;;
48363;SDS011;34170;54.364;18.582;2022-10-30T16:28:27;19.50;;;11.70;;
48363;SDS011;34170;54.364;18.582;2022-10-30T16:30:59;20.90;;;12.25;;
48363;SDS011;34170;54.364;18.582;2022-10-30T16:33:28;18.77;;;10.60;;
48363;SDS011;34170;54.364;18.582;2022-10-30T16:35:58;18.65;;;10.77;;
48363;SDS011;34170;54.364;18.582;2022-10-30T16:38:28;21.38;;;11.63;;
48363;SDS011;34170;54.364;18.582;2022-10-30T16:43:30;16.85;;;9.82;;
48363;SDS011;34170;54.364;18.582;2022-10-30T16:48:43;15.25;;;10.05;;
48363;SDS011;34170;54.364;18.582;2022-10-30T16:51:15;16.73;;;9.75;;
48363;SDS011;34170;54.364;18.582;2022-10-30T16:53:47;17.80;;;10.07;;
48363;SDS011;34170;54.364;18.582;2022-10-30T16:56:23;18.35;;;10.52;;
48363;SDS011;34170;54.364;18.582;2022-10-30T16:58:53;16.67;;;9.13;;
48363;SDS011;34170;54.364;18.582;2022-10-30T17:01:25;17.70;;;10.00;;
48363;SDS011;34170;54.364;18.582;2022-10-30T17:03:54;18.38;;;10.85;;
48363;SDS011;34170;54.364;18.582;2022-10-30T17:09:05;20.30;;;11.13;;
48363;SDS011;34170;54.364;18.582;2022-10-30T17:11:39;18.05;;;10.63;;
48363;SDS011;34170;54.364;18.582;2022-10-30T17:14:20;20.92;;;10.75;;
48363;SDS011;34170;54.364;18.582;2022-10-30T17:16:55;19.52;;;10.80;;
48363;SDS011;34170;54.364;18.582;2022-10-30T17:21:57;25.92;;;14.10;;
48363;SDS011;34170;54.364;18.582;2022-10-30T17:24:33;21.25;;;12.75;;
48363;SDS011;34170;54.364;18.582;2022-10-30T17:27:06;23.65;;;13.10;;
48363;SDS011;34170;54.364;18.582;2022-10-30T17:29:49;25.85;;;13.48;;